sensor_id;sensor_type;location;lat;lon;timestamp;P1;durP1;ratioP1;P2;durP2;ratioP2
56653;SDS011;45096;52.302;4.634;2022-08-01T00:00:43;1.83;;;1.77;;
56653;SDS011;45096;52.302;4.634;2022-08-01T00:03:09;1.65;;;1.55;;
56653;SDS011;45096;52.302;4.634;2022-08-01T00:05:35;1.85;;;1.75;;
56653;SDS011;45096;52.302;4.634;2022-08-01T00:08:04;1.65;;;1.65;;
56653;SDS011;45096;52.302;4.634;2022-08-01T00:10:29;1.90;;;1.80;;
56653;SDS011;45096;52.302;4.634;2022-08-01T00:12:54;1.90;;;1.80;;
56653;SDS011;45096;52.302;4.634;2022-08-01T00:15:20;1.60;;;1.60;;
56653;SDS011;45096;52.302;4.634;2022-08-01T00:17:45;1.55;;;1.45;;
56653;SDS011;45096;52.302;4.634;2022-08-01T00:20:11;1.77;;;1.67;;
56653;SDS011;45096;52.302;4.634;2022-08-01T00:22:39;1.40;;;1.40;;
56653;SDS011;45096;52.302;4.634;2022-08-01T00:25:05;1.80;;;1.70;;
56653;SDS011;45096;52.302;4.634;2022-08-01T00:27:31;1.50;;;1.50;;
56653;SDS011;45096;52.302;4.634;2022-08-01T00:29:57;1.80;;;1.40;;
56653;SDS011;45096;52.302;4.634;2022-08-01T00:32:22;1.95;;;1.85;;
56653;SDS011;45096;52.302;4.634;2022-08-01T00:34:48;1.20;;;1.20;;
56653;SDS011;45096;52.302;4.634;2022-08-01T00:37:13;1.50;;;1.50;;
56653;SDS011;45096;52.302;4.634;2022-08-01T00:39:40;1.67;;;1.60;;
56653;SDS011;45096;52.302;4.634;2022-08-01T00:42:05;1.30;;;1.30;;
56653;SDS011;45096;52.302;4.634;2022-08-01T00:44:31;1.80;;;1.70;;
56653;SDS011;45096;52.302;4.634;2022-08-01T00:46:57;1.65;;;1.55;;
56653;SDS011;45096;52.302;4.634;2022-08-01T00:49:22;1.67;;;1.60;;
56653;SDS011;45096;52.302;4.634;2022-08-01T00:51:47;1.73;;;1.63;;
56653;SDS011;45096;52.302;4.634;2022-08-01T00:54:13;1.50;;;1.50;;
56653;SDS011;45096;52.302;4.634;2022-08-01T00:56:40;2.10;;;1.83;;
56653;SDS011;45096;52.302;4.634;2022-08-01T00:59:05;1.60;;;1.50;;
56653;SDS011;45096;52.302;4.634;2022-08-01T01:01:31;1.70;;;1.60;;
56653;SDS011;45096;52.302;4.634;2022-08-01T01:03:56;1.50;;;1.40;;
56653;SDS011;45096;52.302;4.634;2022-08-01T01:06:30;1.92;;;1.60;;
56653;SDS011;45096;52.302;4.634;2022-08-01T01:09:02;1.70;;;1.60;;
56653;SDS011;45096;52.302;4.634;2022-08-01T01:11:36;1.50;;;1.40;;
56653;SDS011;45096;52.302;4.634;2022-08-01T01:14:09;1.75;;;1.65;;
56653;SDS011;45096;52.302;4.634;2022-08-01T01:16:38;2.60;;;1.40;;
56653;SDS011;45096;52.302;4.634;2022-08-01T01:19:05;1.92;;;1.83;;
56653;SDS011;45096;52.302;4.634;2022-08-01T01:21:42;1.85;;;1.75;;
56653;SDS011;45096;52.302;4.634;2022-08-01T01:24:25;1.90;;;1.80;;
56653;SDS011;45096;52.302;4.634;2022-08-01T01:26:57;1.90;;;1.60;;
56653;SDS011;45096;52.302;4.634;2022-08-01T01:29:30;1.40;;;1.40;;
56653;SDS011;45096;52.302;4.634;2022-08-01T01:31:59;1.77;;;1.50;;
56653;SDS011;45096;52.302;4.634;2022-08-01T01:34:29;2.15;;;1.95;;
56653;SDS011;45096;52.302;4.634;2022-08-01T01:36:57;2.05;;;1.95;;
56653;SDS011;45096;52.302;4.634;2022-08-01T01:39:24;1.90;;;1.80;;
56653;SDS011;45096;52.302;4.634;2022-08-01T01:41:51;1.52;;;1.50;;
56653;SDS011;45096;52.302;4.634;2022-08-01T01:44:17;1.75;;;1.67;;
56653;SDS011;45096;52.302;4.634;2022-08-01T01:46:44;2.05;;;1.85;;
56653;SDS011;45096;52.302;4.634;2022-08-01T01:49:10;1.70;;;1.60;;
56653;SDS011;45096;52.302;4.634;2022-08-01T01:51:36;1.80;;;1.70;;
56653;SDS011;45096;52.302;4.634;2022-08-01T01:54:02;1.60;;;1.50;;
56653;SDS011;45096;52.302;4.634;2022-08-01T01:56:29;1.80;;;1.70;;
56653;SDS011;45096;52.302;4.634;2022-08-01T01:58:55;2.20;;;2.08;;
56653;SDS011;45096;52.302;4.634;2022-08-01T02:01:23;3.33;;;1.98;;
56653;SDS011;45096;52.302;4.634;2022-08-01T02:03:52;2.28;;;2.17;;
56653;SDS011;45096;52.302;4.634;2022-08-01T02:06:17;1.80;;;1.70;;
56653;SDS011;45096;52.302;4.634;2022-08-01T02:08:43;1.90;;;1.80;;
56653;SDS011;45096;52.302;4.634;2022-08-01T02:11:10;2.13;;;2.03;;
56653;SDS011;45096;52.302;4.634;2022-08-01T02:13:36;2.03;;;1.73;;
56653;SDS011;45096;52.302;4.634;2022-08-01T02:16:02;1.40;;;1.40;;
56653;SDS011;45096;52.302;4.634;2022-08-01T02:18:28;1.67;;;1.65;;
56653;SDS011;45096;52.302;4.634;2022-08-01T02:20:55;1.73;;;1.73;;
56653;SDS011;45096;52.302;4.634;2022-08-01T02:23:21;1.90;;;1.80;;
56653;SDS011;45096;52.302;4.634;2022-08-01T02:25:49;1.98;;;1.85;;
56653;SDS011;45096;52.302;4.634;2022-08-01T02:28:16;1.88;;;1.77;;
56653;SDS011;45096;52.302;4.634;2022-08-01T02:30:46;1.80;;;1.70;;
56653;SDS011;45096;52.302;4.634;2022-08-01T02:33:18;2.20;;;2.10;;
56653;SDS011;45096;52.302;4.634;2022-08-01T02:35:46;1.95;;;1.83;;
56653;SDS011;45096;52.302;4.634;2022-08-01T02:38:15;2.08;;;1.98;;
56653;SDS011;45096;52.302;4.634;2022-08-01T02:40:43;2.03;;;1.92;;
56653;SDS011;45096;52.302;4.634;2022-08-01T02:43:10;2.22;;;2.13;;
56653;SDS011;45096;52.302;4.634;2022-08-01T02:45:37;1.77;;;1.70;;
56653;SDS011;45096;52.302;4.634;2022-08-01T02:48:06;2.15;;;1.65;;
56653;SDS011;45096;52.302;4.634;2022-08-01T02:50:34;2.60;;;1.80;;
56653;SDS011;45096;52.302;4.634;2022-08-01T02:53:01;1.85;;;1.75;;
56653;SDS011;45096;52.302;4.634;2022-08-01T02:55:28;1.95;;;1.92;;
56653;SDS011;45096;52.302;4.634;2022-08-01T02:57:55;2.15;;;2.00;;
56653;SDS011;45096;52.302;4.634;2022-08-01T03:00:21;1.83;;;1.83;;
56653;SDS011;45096;52.302;4.634;2022-08-01T03:02:47;2.13;;;1.90;;
56653;SDS011;45096;52.302;4.634;2022-08-01T03:05:14;1.90;;;1.80;;
56653;SDS011;45096;52.302;4.634;2022-08-01T03:07:40;1.75;;;1.65;;
56653;SDS011;45096;52.302;4.634;2022-08-01T03:10:06;1.85;;;1.75;;
56653;SDS011;45096;52.302;4.634;2022-08-01T03:12:35;2.10;;;2.00;;
56653;SDS011;45096;52.302;4.634;2022-08-01T03:15:02;1.48;;;1.48;;
56653;SDS011;45096;52.302;4.634;2022-08-01T03:17:29;2.08;;;2.00;;
56653;SDS011;45096;52.302;4.634;2022-08-01T03:19:56;1.52;;;1.42;;
56653;SDS011;45096;52.302;4.634;2022-08-01T03:22:23;1.70;;;1.60;;
56653;SDS011;45096;52.302;4.634;2022-08-01T03:24:50;2.15;;;2.05;;
56653;SDS011;45096;52.302;4.634;2022-08-01T03:27:17;1.85;;;1.75;;
56653;SDS011;45096;52.302;4.634;2022-08-01T03:29:44;1.85;;;1.75;;
56653;SDS011;45096;52.302;4.634;2022-08-01T03:32:10;2.35;;;2.10;;
56653;SDS011;45096;52.302;4.634;2022-08-01T03:34:36;2.10;;;2.00;;
56653;SDS011;45096;52.302;4.634;2022-08-01T03:37:03;1.90;;;1.80;;
56653;SDS011;45096;52.302;4.634;2022-08-01T03:39:34;2.22;;;2.10;;
56653;SDS011;45096;52.302;4.634;2022-08-01T03:42:05;1.95;;;1.85;;
56653;SDS011;45096;52.302;4.634;2022-08-01T03:44:33;2.28;;;2.00;;
56653;SDS011;45096;52.302;4.634;2022-08-01T03:47:02;1.92;;;1.77;;
56653;SDS011;45096;52.302;4.634;2022-08-01T03:49:30;2.22;;;2.03;;
56653;SDS011;45096;52.302;4.634;2022-08-01T03:51:58;2.10;;;2.00;;
56653;SDS011;45096;52.302;4.634;2022-08-01T03:54:25;1.98;;;1.88;;
56653;SDS011;45096;52.302;4.634;2022-08-01T03:56:53;2.17;;;1.98;;
56653;SDS011;45096;52.302;4.634;2022-08-01T03:59:19;2.05;;;1.95;;
56653;SDS011;45096;52.302;4.634;2022-08-01T04:01:45;2.08;;;1.98;;
56653;SDS011;45096;52.302;4.634;2022-08-01T04:04:12;1.88;;;1.77;;
56653;SDS011;45096;52.302;4.634;2022-08-01T04:06:38;2.10;;;2.00;;
56653;SDS011;45096;52.302;4.634;2022-08-01T04:09:04;2.35;;;2.10;;
56653;SDS011;45096;52.302;4.634;2022-08-01T04:11:29;2.00;;;1.90;;
56653;SDS011;45096;52.302;4.634;2022-08-01T04:13:55;1.60;;;1.50;;
56653;SDS011;45096;52.302;4.634;2022-08-01T04:16:21;2.22;;;2.13;;
56653;SDS011;45096;52.302;4.634;2022-08-01T04:18:46;2.00;;;1.70;;
56653;SDS011;45096;52.302;4.634;2022-08-01T04:21:13;2.00;;;1.90;;
56653;SDS011;45096;52.302;4.634;2022-08-01T04:23:39;2.00;;;1.90;;
56653;SDS011;45096;52.302;4.634;2022-08-01T04:26:06;2.20;;;2.08;;
56653;SDS011;45096;52.302;4.634;2022-08-01T04:28:33;1.83;;;1.73;;
56653;SDS011;45096;52.302;4.634;2022-08-01T04:31:00;1.75;;;1.65;;
56653;SDS011;45096;52.302;4.634;2022-08-01T04:33:25;2.00;;;1.90;;
56653;SDS011;45096;52.302;4.634;2022-08-01T04:35:51;2.03;;;1.92;;
56653;SDS011;45096;52.302;4.634;2022-08-01T04:38:19;2.35;;;2.25;;
56653;SDS011;45096;52.302;4.634;2022-08-01T04:40:46;1.90;;;1.80;;
56653;SDS011;45096;52.302;4.634;2022-08-01T04:43:13;3.10;;;2.83;;
56653;SDS011;45096;52.302;4.634;2022-08-01T04:45:39;2.55;;;2.35;;
56653;SDS011;45096;52.302;4.634;2022-08-01T04:48:04;2.78;;;2.58;;
56653;SDS011;45096;52.302;4.634;2022-08-01T04:50:30;2.33;;;2.22;;
56653;SDS011;45096;52.302;4.634;2022-08-01T04:52:56;2.22;;;2.10;;
56653;SDS011;45096;52.302;4.634;2022-08-01T04:55:22;2.28;;;2.17;;
56653;SDS011;45096;52.302;4.634;2022-08-01T04:57:48;2.67;;;2.50;;
56653;SDS011;45096;52.302;4.634;2022-08-01T05:00:13;2.22;;;2.13;;
56653;SDS011;45096;52.302;4.634;2022-08-01T05:02:39;2.10;;;2.00;;
56653;SDS011;45096;52.302;4.634;2022-08-01T05:05:05;2.00;;;1.90;;
56653;SDS011;45096;52.302;4.634;2022-08-01T05:07:31;1.98;;;1.83;;
56653;SDS011;45096;52.302;4.634;2022-08-01T05:09:56;1.58;;;1.58;;
56653;SDS011;45096;52.302;4.634;2022-08-01T05:12:23;1.58;;;1.58;;
56653;SDS011;45096;52.302;4.634;2022-08-01T05:14:48;2.25;;;2.05;;
56653;SDS011;45096;52.302;4.634;2022-08-01T05:17:15;3.65;;;1.88;;
56653;SDS011;45096;52.302;4.634;2022-08-01T05:19:40;3.20;;;1.90;;
56653;SDS011;45096;52.302;4.634;2022-08-01T05:22:06;1.95;;;1.85;;
56653;SDS011;45096;52.302;4.634;2022-08-01T05:24:32;2.33;;;2.13;;
56653;SDS011;45096;52.302;4.634;2022-08-01T05:26:59;2.30;;;2.20;;
56653;SDS011;45096;52.302;4.634;2022-08-01T05:29:25;2.08;;;1.98;;
56653;SDS011;45096;52.302;4.634;2022-08-01T05:31:51;2.00;;;1.90;;
56653;SDS011;45096;52.302;4.634;2022-08-01T05:34:17;2.30;;;2.20;;
56653;SDS011;45096;52.302;4.634;2022-08-01T05:36:43;2.38;;;2.17;;
56653;SDS011;45096;52.302;4.634;2022-08-01T05:39:08;2.72;;;2.10;;
56653;SDS011;45096;52.302;4.634;2022-08-01T05:41:33;2.08;;;1.92;;
56653;SDS011;45096;52.302;4.634;2022-08-01T05:44:00;2.10;;;2.00;;
56653;SDS011;45096;52.302;4.634;2022-08-01T05:46:27;2.00;;;1.80;;
56653;SDS011;45096;52.302;4.634;2022-08-01T05:48:52;2.95;;;1.90;;
56653;SDS011;45096;52.302;4.634;2022-08-01T05:51:17;3.35;;;2.03;;
56653;SDS011;45096;52.302;4.634;2022-08-01T05:53:43;3.22;;;2.22;;
56653;SDS011;45096;52.302;4.634;2022-08-01T05:56:09;3.13;;;2.13;;
56653;SDS011;45096;52.302;4.634;2022-08-01T05:58:34;2.90;;;2.08;;
56653;SDS011;45096;52.302;4.634;2022-08-01T06:01:00;4.65;;;2.58;;
56653;SDS011;45096;52.302;4.634;2022-08-01T06:03:26;3.25;;;2.10;;
56653;SDS011;45096;52.302;4.634;2022-08-01T06:05:52;7.30;;;2.60;;
56653;SDS011;45096;52.302;4.634;2022-08-01T06:08:17;4.38;;;2.45;;
56653;SDS011;45096;52.302;4.634;2022-08-01T06:10:42;6.95;;;2.40;;
56653;SDS011;45096;52.302;4.634;2022-08-01T06:13:08;3.10;;;2.38;;
56653;SDS011;45096;52.302;4.634;2022-08-01T06:15:33;6.57;;;2.50;;
56653;SDS011;45096;52.302;4.634;2022-08-01T06:17:59;2.97;;;2.00;;
56653;SDS011;45096;52.302;4.634;2022-08-01T06:20:25;3.40;;;2.60;;
56653;SDS011;45096;52.302;4.634;2022-08-01T06:22:51;4.25;;;2.45;;
56653;SDS011;45096;52.302;4.634;2022-08-01T06:25:16;4.68;;;2.53;;
56653;SDS011;45096;52.302;4.634;2022-08-01T06:27:41;6.03;;;2.58;;
56653;SDS011;45096;52.302;4.634;2022-08-01T06:30:07;5.45;;;2.47;;
56653;SDS011;45096;52.302;4.634;2022-08-01T06:32:33;4.55;;;2.50;;
56653;SDS011;45096;52.302;4.634;2022-08-01T06:34:58;5.68;;;2.50;;
56653;SDS011;45096;52.302;4.634;2022-08-01T06:37:27;3.40;;;2.17;;
56653;SDS011;45096;52.302;4.634;2022-08-01T06:39:53;5.00;;;2.30;;
56653;SDS011;45096;52.302;4.634;2022-08-01T06:42:18;5.50;;;2.38;;
56653;SDS011;45096;52.302;4.634;2022-08-01T06:44:44;5.07;;;2.15;;
56653;SDS011;45096;52.302;4.634;2022-08-01T06:47:09;5.13;;;2.50;;
56653;SDS011;45096;52.302;4.634;2022-08-01T06:49:35;5.95;;;3.00;;
56653;SDS011;45096;52.302;4.634;2022-08-01T06:52:00;5.82;;;2.25;;
56653;SDS011;45096;52.302;4.634;2022-08-01T06:54:27;4.95;;;2.45;;
56653;SDS011;45096;52.302;4.634;2022-08-01T06:56:52;7.80;;;2.60;;
56653;SDS011;45096;52.302;4.634;2022-08-01T06:59:18;5.35;;;2.65;;
56653;SDS011;45096;52.302;4.634;2022-08-01T07:01:43;7.18;;;2.72;;
56653;SDS011;45096;52.302;4.634;2022-08-01T07:04:08;7.53;;;2.70;;
56653;SDS011;45096;52.302;4.634;2022-08-01T07:06:34;5.28;;;2.38;;
56653;SDS011;45096;52.302;4.634;2022-08-01T07:08:59;6.13;;;2.20;;
56653;SDS011;45096;52.302;4.634;2022-08-01T07:11:26;4.22;;;2.08;;
56653;SDS011;45096;52.302;4.634;2022-08-01T07:13:51;5.13;;;2.05;;
56653;SDS011;45096;52.302;4.634;2022-08-01T07:16:17;4.22;;;2.60;;
56653;SDS011;45096;52.302;4.634;2022-08-01T07:18:42;4.55;;;2.28;;
56653;SDS011;45096;52.302;4.634;2022-08-01T07:21:08;5.60;;;1.85;;
56653;SDS011;45096;52.302;4.634;2022-08-01T07:23:33;5.75;;;2.03;;
56653;SDS011;45096;52.302;4.634;2022-08-01T07:25:59;6.50;;;2.28;;
56653;SDS011;45096;52.302;4.634;2022-08-01T07:28:25;7.93;;;2.28;;
56653;SDS011;45096;52.302;4.634;2022-08-01T07:30:51;5.32;;;2.33;;
56653;SDS011;45096;52.302;4.634;2022-08-01T07:33:16;6.45;;;2.28;;
56653;SDS011;45096;52.302;4.634;2022-08-01T07:35:42;4.53;;;2.03;;
56653;SDS011;45096;52.302;4.634;2022-08-01T07:38:07;5.82;;;2.22;;
56653;SDS011;45096;52.302;4.634;2022-08-01T07:40:32;3.63;;;2.22;;
56653;SDS011;45096;52.302;4.634;2022-08-01T07:42:58;4.00;;;2.10;;
56653;SDS011;45096;52.302;4.634;2022-08-01T07:45:25;4.85;;;1.85;;
56653;SDS011;45096;52.302;4.634;2022-08-01T07:47:50;6.22;;;3.28;;
56653;SDS011;45096;52.302;4.634;2022-08-01T07:50:16;6.43;;;2.70;;
56653;SDS011;45096;52.302;4.634;2022-08-01T07:52:41;2.75;;;1.70;;
56653;SDS011;45096;52.302;4.634;2022-08-01T07:55:07;2.90;;;2.15;;
56653;SDS011;45096;52.302;4.634;2022-08-01T07:57:33;5.28;;;1.85;;
56653;SDS011;45096;52.302;4.634;2022-08-01T07:59:59;7.55;;;2.25;;
56653;SDS011;45096;52.302;4.634;2022-08-01T08:02:25;3.50;;;1.92;;
56653;SDS011;45096;52.302;4.634;2022-08-01T08:04:51;7.55;;;2.10;;
56653;SDS011;45096;52.302;4.634;2022-08-01T08:07:16;6.75;;;1.67;;
56653;SDS011;45096;52.302;4.634;2022-08-01T08:09:41;7.70;;;2.72;;
56653;SDS011;45096;52.302;4.634;2022-08-01T08:12:07;5.07;;;2.00;;
56653;SDS011;45096;52.302;4.634;2022-08-01T08:14:32;3.55;;;2.00;;
56653;SDS011;45096;52.302;4.634;2022-08-01T08:16:58;3.28;;;2.22;;
56653;SDS011;45096;52.302;4.634;2022-08-01T08:19:25;5.70;;;2.05;;
56653;SDS011;45096;52.302;4.634;2022-08-01T08:21:50;4.53;;;1.73;;
56653;SDS011;45096;52.302;4.634;2022-08-01T08:24:16;5.35;;;1.70;;
56653;SDS011;45096;52.302;4.634;2022-08-01T08:26:41;5.55;;;1.88;;
56653;SDS011;45096;52.302;4.634;2022-08-01T08:29:07;6.57;;;2.40;;
56653;SDS011;45096;52.302;4.634;2022-08-01T08:31:32;6.63;;;1.70;;
56653;SDS011;45096;52.302;4.634;2022-08-01T08:33:58;4.88;;;1.98;;
56653;SDS011;45096;52.302;4.634;2022-08-01T08:36:24;4.00;;;1.90;;
56653;SDS011;45096;52.302;4.634;2022-08-01T08:38:50;4.80;;;2.22;;
56653;SDS011;45096;52.302;4.634;2022-08-01T08:41:15;7.38;;;2.83;;
56653;SDS011;45096;52.302;4.634;2022-08-01T08:43:41;3.55;;;1.90;;
56653;SDS011;45096;52.302;4.634;2022-08-01T08:46:06;6.45;;;1.92;;
56653;SDS011;45096;52.302;4.634;2022-08-01T08:48:33;3.83;;;1.60;;
56653;SDS011;45096;52.302;4.634;2022-08-01T08:50:59;4.30;;;1.70;;
56653;SDS011;45096;52.302;4.634;2022-08-01T08:53:26;7.85;;;2.15;;
56653;SDS011;45096;52.302;4.634;2022-08-01T08:55:52;4.60;;;1.77;;
56653;SDS011;45096;52.302;4.634;2022-08-01T08:58:18;5.18;;;1.75;;
56653;SDS011;45096;52.302;4.634;2022-08-01T09:00:44;3.83;;;1.98;;
56653;SDS011;45096;52.302;4.634;2022-08-01T09:03:09;4.30;;;1.80;;
56653;SDS011;45096;52.302;4.634;2022-08-01T09:05:35;4.63;;;2.28;;
56653;SDS011;45096;52.302;4.634;2022-08-01T09:08:00;5.68;;;2.38;;
56653;SDS011;45096;52.302;4.634;2022-08-01T09:10:27;5.28;;;1.77;;
56653;SDS011;45096;52.302;4.634;2022-08-01T09:13:02;3.75;;;1.40;;
56653;SDS011;45096;52.302;4.634;2022-08-01T09:15:37;5.07;;;1.50;;
56653;SDS011;45096;52.302;4.634;2022-08-01T09:18:03;2.90;;;1.85;;
56653;SDS011;45096;52.302;4.634;2022-08-01T09:20:28;4.95;;;2.03;;
56653;SDS011;45096;52.302;4.634;2022-08-01T09:22:54;3.55;;;1.58;;
56653;SDS011;45096;52.302;4.634;2022-08-01T09:25:19;4.88;;;1.60;;
56653;SDS011;45096;52.302;4.634;2022-08-01T09:27:46;5.05;;;1.88;;
56653;SDS011;45096;52.302;4.634;2022-08-01T09:30:12;4.60;;;1.58;;
56653;SDS011;45096;52.302;4.634;2022-08-01T09:32:55;3.40;;;2.00;;
56653;SDS011;45096;52.302;4.634;2022-08-01T09:35:22;3.78;;;1.67;;
56653;SDS011;45096;52.302;4.634;2022-08-01T09:37:48;7.70;;;1.88;;
56653;SDS011;45096;52.302;4.634;2022-08-01T09:40:14;5.82;;;2.00;;
56653;SDS011;45096;52.302;4.634;2022-08-01T09:42:39;6.50;;;1.80;;
56653;SDS011;45096;52.302;4.634;2022-08-01T09:45:06;5.07;;;1.95;;
56653;SDS011;45096;52.302;4.634;2022-08-01T09:47:36;2.28;;;1.60;;
56653;SDS011;45096;52.302;4.634;2022-08-01T09:50:02;2.90;;;1.70;;
56653;SDS011;45096;52.302;4.634;2022-08-01T09:52:28;4.22;;;1.80;;
56653;SDS011;45096;52.302;4.634;2022-08-01T09:54:53;2.78;;;1.92;;
56653;SDS011;45096;52.302;4.634;2022-08-01T09:57:21;4.80;;;1.50;;
56653;SDS011;45096;52.302;4.634;2022-08-01T09:59:47;5.05;;;1.88;;
56653;SDS011;45096;52.302;4.634;2022-08-01T10:02:26;2.13;;;1.70;;
56653;SDS011;45096;52.302;4.634;2022-08-01T10:04:53;4.88;;;1.85;;
56653;SDS011;45096;52.302;4.634;2022-08-01T10:07:19;3.60;;;2.03;;
56653;SDS011;45096;52.302;4.634;2022-08-01T10:09:45;4.50;;;2.10;;
56653;SDS011;45096;52.302;4.634;2022-08-01T10:12:11;5.40;;;1.90;;
56653;SDS011;45096;52.302;4.634;2022-08-01T10:14:39;5.13;;;2.20;;
56653;SDS011;45096;52.302;4.634;2022-08-01T10:17:06;3.17;;;1.70;;
56653;SDS011;45096;52.302;4.634;2022-08-01T10:19:34;5.90;;;1.75;;
56653;SDS011;45096;52.302;4.634;2022-08-01T10:22:00;3.63;;;2.00;;
56653;SDS011;45096;52.302;4.634;2022-08-01T10:24:27;3.60;;;1.90;;
56653;SDS011;45096;52.302;4.634;2022-08-01T10:26:55;2.72;;;1.50;;
56653;SDS011;45096;52.302;4.634;2022-08-01T10:29:22;3.13;;;2.08;;
56653;SDS011;45096;52.302;4.634;2022-08-01T10:31:49;3.05;;;1.60;;
56653;SDS011;45096;52.302;4.634;2022-08-01T10:34:15;2.15;;;1.40;;
56653;SDS011;45096;52.302;4.634;2022-08-01T10:36:42;2.00;;;1.83;;
56653;SDS011;45096;52.302;4.634;2022-08-01T10:39:08;4.50;;;1.90;;
56653;SDS011;45096;52.302;4.634;2022-08-01T10:41:35;5.20;;;1.67;;
56653;SDS011;45096;52.302;4.634;2022-08-01T10:44:00;5.70;;;1.75;;
56653;SDS011;45096;52.302;4.634;2022-08-01T10:46:26;5.90;;;1.88;;
56653;SDS011;45096;52.302;4.634;2022-08-01T10:48:54;2.42;;;1.70;;
56653;SDS011;45096;52.302;4.634;2022-08-01T10:51:21;2.67;;;2.00;;
56653;SDS011;45096;52.302;4.634;2022-08-01T10:53:49;2.88;;;1.30;;
56653;SDS011;45096;52.302;4.634;2022-08-01T10:56:17;4.07;;;1.88;;
56653;SDS011;45096;52.302;4.634;2022-08-01T10:58:42;2.28;;;1.48;;
56653;SDS011;45096;52.302;4.634;2022-08-01T11:01:13;5.55;;;2.10;;
56653;SDS011;45096;52.302;4.634;2022-08-01T11:06:42;13.43;;;2.20;;
56653;SDS011;45096;52.302;4.634;2022-08-01T11:09:23;5.07;;;2.03;;
56653;SDS011;45096;52.302;4.634;2022-08-01T11:12:02;5.57;;;2.15;;
56653;SDS011;45096;52.302;4.634;2022-08-01T11:14:29;8.27;;;1.90;;
56653;SDS011;45096;52.302;4.634;2022-08-01T11:16:55;9.75;;;2.28;;
56653;SDS011;45096;52.302;4.634;2022-08-01T11:19:20;5.00;;;2.03;;
56653;SDS011;45096;52.302;4.634;2022-08-01T11:21:58;5.75;;;2.10;;
56653;SDS011;45096;52.302;4.634;2022-08-01T11:27:22;4.65;;;1.85;;
56653;SDS011;45096;52.302;4.634;2022-08-01T11:32:46;2.85;;;1.70;;
56653;SDS011;45096;52.302;4.634;2022-08-01T11:35:12;5.90;;;2.00;;
56653;SDS011;45096;52.302;4.634;2022-08-01T11:37:38;2.47;;;1.60;;
56653;SDS011;45096;52.302;4.634;2022-08-01T11:40:18;3.38;;;1.50;;
56653;SDS011;45096;52.302;4.634;2022-08-01T11:42:44;1.80;;;1.30;;
56653;SDS011;45096;52.302;4.634;2022-08-01T11:45:10;2.90;;;1.60;;
56653;SDS011;45096;52.302;4.634;2022-08-01T11:50:34;3.08;;;1.50;;
56653;SDS011;45096;52.302;4.634;2022-08-01T11:53:01;2.22;;;1.40;;
56653;SDS011;45096;52.302;4.634;2022-08-01T11:55:29;3.90;;;1.60;;
56653;SDS011;45096;52.302;4.634;2022-08-01T11:58:00;2.08;;;1.70;;
56653;SDS011;45096;52.302;4.634;2022-08-01T12:00:27;2.30;;;1.40;;
56653;SDS011;45096;52.302;4.634;2022-08-01T12:02:56;4.38;;;2.28;;
56653;SDS011;45096;52.302;4.634;2022-08-01T12:05:22;3.80;;;1.83;;
56653;SDS011;45096;52.302;4.634;2022-08-01T12:07:49;3.80;;;1.77;;
56653;SDS011;45096;52.302;4.634;2022-08-01T12:10:16;1.63;;;1.40;;
56653;SDS011;45096;52.302;4.634;2022-08-01T12:12:44;3.88;;;1.60;;
56653;SDS011;45096;52.302;4.634;2022-08-01T12:15:11;3.55;;;1.73;;
56653;SDS011;45096;52.302;4.634;2022-08-01T12:17:38;2.17;;;1.80;;
56653;SDS011;45096;52.302;4.634;2022-08-01T12:20:05;3.42;;;1.38;;
56653;SDS011;45096;52.302;4.634;2022-08-01T12:22:31;2.78;;;1.20;;
56653;SDS011;45096;52.302;4.634;2022-08-01T12:25:03;2.53;;;1.30;;
56653;SDS011;45096;52.302;4.634;2022-08-01T12:27:30;3.95;;;1.40;;
56653;SDS011;45096;52.302;4.634;2022-08-01T12:29:56;1.73;;;1.35;;
56653;SDS011;45096;52.302;4.634;2022-08-01T12:32:23;1.50;;;1.27;;
56653;SDS011;45096;52.302;4.634;2022-08-01T12:34:50;2.92;;;1.30;;
56653;SDS011;45096;52.302;4.634;2022-08-01T12:37:16;2.63;;;1.60;;
56653;SDS011;45096;52.302;4.634;2022-08-01T12:39:42;4.10;;;1.45;;
56653;SDS011;45096;52.302;4.634;2022-08-01T12:42:08;1.70;;;1.60;;
56653;SDS011;45096;52.302;4.634;2022-08-01T12:44:34;3.17;;;1.73;;
56653;SDS011;45096;52.302;4.634;2022-08-01T12:47:01;2.95;;;1.55;;
56653;SDS011;45096;52.302;4.634;2022-08-01T12:49:27;1.70;;;0.90;;
56653;SDS011;45096;52.302;4.634;2022-08-01T12:51:52;1.83;;;1.20;;
56653;SDS011;45096;52.302;4.634;2022-08-01T12:54:18;4.20;;;1.60;;
56653;SDS011;45096;52.302;4.634;2022-08-01T12:56:44;2.85;;;1.38;;
56653;SDS011;45096;52.302;4.634;2022-08-01T12:59:19;2.13;;;1.45;;
56653;SDS011;45096;52.302;4.634;2022-08-01T13:01:45;2.25;;;1.55;;
56653;SDS011;45096;52.302;4.634;2022-08-01T13:04:11;1.65;;;1.15;;
56653;SDS011;45096;52.302;4.634;2022-08-01T13:06:37;2.95;;;1.55;;
56653;SDS011;45096;52.302;4.634;2022-08-01T13:09:05;4.00;;;1.38;;
56653;SDS011;45096;52.302;4.634;2022-08-01T13:11:31;1.45;;;1.27;;
56653;SDS011;45096;52.302;4.634;2022-08-01T13:13:57;2.65;;;1.38;;
56653;SDS011;45096;52.302;4.634;2022-08-01T13:16:23;4.32;;;1.55;;
56653;SDS011;45096;52.302;4.634;2022-08-01T13:18:50;2.70;;;1.45;;
56653;SDS011;45096;52.302;4.634;2022-08-01T13:21:17;3.03;;;1.20;;
56653;SDS011;45096;52.302;4.634;2022-08-01T13:26:37;1.95;;;1.38;;
56653;SDS011;45096;52.302;4.634;2022-08-01T13:29:06;1.50;;;1.38;;
56653;SDS011;45096;52.302;4.634;2022-08-01T13:31:32;3.05;;;1.30;;
56653;SDS011;45096;52.302;4.634;2022-08-01T13:33:58;2.58;;;1.40;;
56653;SDS011;45096;52.302;4.634;2022-08-01T13:36:24;2.28;;;1.30;;
56653;SDS011;45096;52.302;4.634;2022-08-01T13:38:50;2.55;;;1.35;;
56653;SDS011;45096;52.302;4.634;2022-08-01T13:41:15;2.85;;;1.23;;
56653;SDS011;45096;52.302;4.634;2022-08-01T13:43:41;2.55;;;1.23;;
56653;SDS011;45096;52.302;4.634;2022-08-01T13:46:06;1.65;;;1.30;;
56653;SDS011;45096;52.302;4.634;2022-08-01T13:48:31;1.60;;;1.45;;
56653;SDS011;45096;52.302;4.634;2022-08-01T13:50:57;1.65;;;1.55;;
56653;SDS011;45096;52.302;4.634;2022-08-01T13:53:24;2.65;;;1.48;;
56653;SDS011;45096;52.302;4.634;2022-08-01T13:55:49;1.60;;;1.40;;
56653;SDS011;45096;52.302;4.634;2022-08-01T13:58:15;2.28;;;1.23;;
56653;SDS011;45096;52.302;4.634;2022-08-01T14:00:40;1.85;;;1.10;;
56653;SDS011;45096;52.302;4.634;2022-08-01T14:03:05;4.55;;;1.45;;
56653;SDS011;45096;52.302;4.634;2022-08-01T14:05:31;1.20;;;1.10;;
56653;SDS011;45096;52.302;4.634;2022-08-01T14:07:56;1.10;;;1.00;;
56653;SDS011;45096;52.302;4.634;2022-08-01T14:10:23;1.90;;;1.02;;
56653;SDS011;45096;52.302;4.634;2022-08-01T14:12:48;2.03;;;1.17;;
56653;SDS011;45096;52.302;4.634;2022-08-01T14:15:14;3.13;;;1.52;;
56653;SDS011;45096;52.302;4.634;2022-08-01T14:17:40;1.90;;;1.08;;
56653;SDS011;45096;52.302;4.634;2022-08-01T14:20:05;2.35;;;1.00;;
56653;SDS011;45096;52.302;4.634;2022-08-01T14:22:31;0.98;;;0.98;;
56653;SDS011;45096;52.302;4.634;2022-08-01T14:24:57;1.30;;;1.00;;
56653;SDS011;45096;52.302;4.634;2022-08-01T14:27:24;6.75;;;5.60;;
56653;SDS011;45096;52.302;4.634;2022-08-01T14:29:49;3.20;;;2.67;;
56653;SDS011;45096;52.302;4.634;2022-08-01T14:32:14;2.25;;;1.52;;
56653;SDS011;45096;52.302;4.634;2022-08-01T14:34:40;1.65;;;1.25;;
56653;SDS011;45096;52.302;4.634;2022-08-01T14:37:05;2.42;;;1.50;;
56653;SDS011;45096;52.302;4.634;2022-08-01T14:39:30;2.45;;;1.80;;
56653;SDS011;45096;52.302;4.634;2022-08-01T14:41:56;1.30;;;1.20;;
56653;SDS011;45096;52.302;4.634;2022-08-01T14:44:22;1.75;;;1.00;;
56653;SDS011;45096;52.302;4.634;2022-08-01T14:46:48;3.20;;;1.55;;
56653;SDS011;45096;52.302;4.634;2022-08-01T14:49:13;1.50;;;1.40;;
56653;SDS011;45096;52.302;4.634;2022-08-01T14:51:39;1.75;;;1.20;;
56653;SDS011;45096;52.302;4.634;2022-08-01T14:54:04;4.20;;;1.67;;
56653;SDS011;45096;52.302;4.634;2022-08-01T14:56:30;1.50;;;1.40;;
56653;SDS011;45096;52.302;4.634;2022-08-01T14:58:56;2.53;;;1.20;;